sensor_id;sensor_type;location;lat;lon;timestamp;P1;durP1;ratioP1;P2;durP2;ratioP2
7324;SDS011;3703;48.016;7.802;2022-09-09T00:00:13;2.83;;;1.40;;
7324;SDS011;3703;48.016;7.802;2022-09-09T00:03:08;2.13;;;1.20;;
7324;SDS011;3703;48.016;7.802;2022-09-09T00:06:03;2.33;;;1.57;;
7324;SDS011;3703;48.016;7.802;2022-09-09T00:09:00;2.27;;;1.40;;
7324;SDS011;3703;48.016;7.802;2022-09-09T00:11:53;5.67;;;1.73;;
7324;SDS011;3703;48.016;7.802;2022-09-09T00:14:50;4.83;;;1.50;;
7324;SDS011;3703;48.016;7.802;2022-09-09T00:17:43;1.73;;;1.40;;
7324;SDS011;3703;48.016;7.802;2022-09-09T00:20:38;3.10;;;1.30;;
7324;SDS011;3703;48.016;7.802;2022-09-09T00:23:32;2.53;;;1.43;;
7324;SDS011;3703;48.016;7.802;2022-09-09T00:26:26;2.33;;;1.47;;
7324;SDS011;3703;48.016;7.802;2022-09-09T00:29:25;3.93;;;1.50;;
7324;SDS011;3703;48.016;7.802;2022-09-09T00:32:22;5.00;;;1.90;;
7324;SDS011;3703;48.016;7.802;2022-09-09T00:35:18;1.77;;;1.23;;
7324;SDS011;3703;48.016;7.802;2022-09-09T00:38:12;4.70;;;2.10;;
7324;SDS011;3703;48.016;7.802;2022-09-09T00:41:05;3.60;;;1.90;;
7324;SDS011;3703;48.016;7.802;2022-09-09T00:44:00;3.13;;;2.10;;
7324;SDS011;3703;48.016;7.802;2022-09-09T00:47:03;2.40;;;1.77;;
7324;SDS011;3703;48.016;7.802;2022-09-09T00:50:08;4.03;;;1.40;;
7324;SDS011;3703;48.016;7.802;2022-09-09T00:53:24;3.83;;;1.67;;
7324;SDS011;3703;48.016;7.802;2022-09-09T00:56:23;2.07;;;1.33;;
7324;SDS011;3703;48.016;7.802;2022-09-09T00:59:24;5.57;;;2.13;;
7324;SDS011;3703;48.016;7.802;2022-09-09T01:02:25;3.23;;;1.70;;
7324;SDS011;3703;48.016;7.802;2022-09-09T01:05:18;4.43;;;1.60;;
7324;SDS011;3703;48.016;7.802;2022-09-09T01:08:18;2.60;;;1.70;;
7324;SDS011;3703;48.016;7.802;2022-09-09T01:11:20;2.93;;;1.67;;
7324;SDS011;3703;48.016;7.802;2022-09-09T01:14:14;3.20;;;1.50;;
7324;SDS011;3703;48.016;7.802;2022-09-09T01:17:17;2.57;;;1.20;;
7324;SDS011;3703;48.016;7.802;2022-09-09T01:20:10;2.70;;;1.47;;
7324;SDS011;3703;48.016;7.802;2022-09-09T01:23:14;3.73;;;1.40;;
7324;SDS011;3703;48.016;7.802;2022-09-09T01:26:28;3.17;;;1.27;;
7324;SDS011;3703;48.016;7.802;2022-09-09T01:29:19;3.87;;;1.50;;
7324;SDS011;3703;48.016;7.802;2022-09-09T01:35:31;4.03;;;1.60;;
7324;SDS011;3703;48.016;7.802;2022-09-09T01:38:26;2.97;;;1.60;;
7324;SDS011;3703;48.016;7.802;2022-09-09T01:41:16;2.53;;;1.43;;
7324;SDS011;3703;48.016;7.802;2022-09-09T01:44:05;3.13;;;1.30;;
7324;SDS011;3703;48.016;7.802;2022-09-09T01:46:54;3.43;;;1.60;;
7324;SDS011;3703;48.016;7.802;2022-09-09T01:49:42;3.07;;;1.40;;
7324;SDS011;3703;48.016;7.802;2022-09-09T01:52:29;2.80;;;1.70;;
7324;SDS011;3703;48.016;7.802;2022-09-09T01:55:18;2.00;;;1.20;;
7324;SDS011;3703;48.016;7.802;2022-09-09T01:58:18;3.10;;;1.87;;
7324;SDS011;3703;48.016;7.802;2022-09-09T02:01:22;3.20;;;1.60;;
7324;SDS011;3703;48.016;7.802;2022-09-09T02:04:24;3.53;;;1.70;;
7324;SDS011;3703;48.016;7.802;2022-09-09T02:07:30;2.47;;;1.27;;
7324;SDS011;3703;48.016;7.802;2022-09-09T02:10:28;1.90;;;1.27;;
7324;SDS011;3703;48.016;7.802;2022-09-09T02:13:19;2.63;;;1.53;;
7324;SDS011;3703;48.016;7.802;2022-09-09T02:16:10;3.97;;;1.30;;
7324;SDS011;3703;48.016;7.802;2022-09-09T02:19:06;1.67;;;1.33;;
7324;SDS011;3703;48.016;7.802;2022-09-09T02:21:59;3.50;;;1.70;;
7324;SDS011;3703;48.016;7.802;2022-09-09T02:24:48;2.00;;;1.50;;
7324;SDS011;3703;48.016;7.802;2022-09-09T02:27:40;3.43;;;1.43;;
7324;SDS011;3703;48.016;7.802;2022-09-09T02:30:30;2.10;;;1.30;;
7324;SDS011;3703;48.016;7.802;2022-09-09T02:33:19;2.57;;;1.80;;
7324;SDS011;3703;48.016;7.802;2022-09-09T02:36:12;3.37;;;2.00;;
7324;SDS011;3703;48.016;7.802;2022-09-09T02:39:02;2.43;;;1.70;;
7324;SDS011;3703;48.016;7.802;2022-09-09T02:41:54;2.67;;;1.50;;
7324;SDS011;3703;48.016;7.802;2022-09-09T02:44:42;2.87;;;1.63;;
7324;SDS011;3703;48.016;7.802;2022-09-09T02:47:32;2.33;;;1.47;;
7324;SDS011;3703;48.016;7.802;2022-09-09T02:50:23;2.17;;;1.53;;
7324;SDS011;3703;48.016;7.802;2022-09-09T02:53:22;1.20;;;1.10;;
7324;SDS011;3703;48.016;7.802;2022-09-09T02:56:14;2.43;;;1.50;;
7324;SDS011;3703;48.016;7.802;2022-09-09T02:59:04;2.37;;;1.73;;
7324;SDS011;3703;48.016;7.802;2022-09-09T03:01:52;3.27;;;1.80;;
7324;SDS011;3703;48.016;7.802;2022-09-09T03:04:40;4.27;;;1.97;;
7324;SDS011;3703;48.016;7.802;2022-09-09T03:07:30;2.67;;;1.47;;
7324;SDS011;3703;48.016;7.802;2022-09-09T03:10:18;2.63;;;1.50;;
7324;SDS011;3703;48.016;7.802;2022-09-09T03:13:06;2.83;;;1.80;;
7324;SDS011;3703;48.016;7.802;2022-09-09T03:15:54;3.57;;;1.47;;
7324;SDS011;3703;48.016;7.802;2022-09-09T03:18:42;1.70;;;1.60;;
7324;SDS011;3703;48.016;7.802;2022-09-09T03:21:31;2.87;;;1.47;;
7324;SDS011;3703;48.016;7.802;2022-09-09T03:24:18;3.40;;;1.80;;
7324;SDS011;3703;48.016;7.802;2022-09-09T03:27:09;3.47;;;1.50;;
7324;SDS011;3703;48.016;7.802;2022-09-09T03:29:57;4.13;;;1.57;;
7324;SDS011;3703;48.016;7.802;2022-09-09T03:32:44;2.50;;;1.70;;
7324;SDS011;3703;48.016;7.802;2022-09-09T03:35:33;2.43;;;1.50;;
7324;SDS011;3703;48.016;7.802;2022-09-09T03:38:21;2.87;;;1.60;;
7324;SDS011;3703;48.016;7.802;2022-09-09T03:41:09;6.13;;;1.77;;
7324;SDS011;3703;48.016;7.802;2022-09-09T03:43:59;4.20;;;1.73;;
7324;SDS011;3703;48.016;7.802;2022-09-09T03:46:47;3.10;;;1.57;;
7324;SDS011;3703;48.016;7.802;2022-09-09T03:49:35;4.00;;;1.43;;
7324;SDS011;3703;48.016;7.802;2022-09-09T03:52:22;2.97;;;1.50;;
7324;SDS011;3703;48.016;7.802;2022-09-09T03:55:11;3.57;;;1.40;;
7324;SDS011;3703;48.016;7.802;2022-09-09T03:57:59;1.97;;;1.67;;
7324;SDS011;3703;48.016;7.802;2022-09-09T04:00:53;5.00;;;1.60;;
7324;SDS011;3703;48.016;7.802;2022-09-09T04:03:43;2.40;;;1.40;;
7324;SDS011;3703;48.016;7.802;2022-09-09T04:06:31;2.10;;;1.60;;
7324;SDS011;3703;48.016;7.802;2022-09-09T04:09:18;2.63;;;1.30;;
7324;SDS011;3703;48.016;7.802;2022-09-09T04:12:07;1.27;;;1.10;;
7324;SDS011;3703;48.016;7.802;2022-09-09T04:14:56;1.97;;;1.63;;
7324;SDS011;3703;48.016;7.802;2022-09-09T04:17:45;2.03;;;1.50;;
7324;SDS011;3703;48.016;7.802;2022-09-09T04:20:33;2.77;;;1.30;;
7324;SDS011;3703;48.016;7.802;2022-09-09T04:23:20;1.20;;;1.10;;
7324;SDS011;3703;48.016;7.802;2022-09-09T04:26:09;1.37;;;1.20;;
7324;SDS011;3703;48.016;7.802;2022-09-09T04:28:57;3.60;;;1.30;;
7324;SDS011;3703;48.016;7.802;2022-09-09T04:31:44;2.77;;;1.20;;
7324;SDS011;3703;48.016;7.802;2022-09-09T04:34:33;3.13;;;1.40;;
7324;SDS011;3703;48.016;7.802;2022-09-09T04:37:21;1.87;;;1.23;;
7324;SDS011;3703;48.016;7.802;2022-09-09T04:40:10;2.37;;;1.53;;
7324;SDS011;3703;48.016;7.802;2022-09-09T04:42:58;1.43;;;1.23;;
7324;SDS011;3703;48.016;7.802;2022-09-09T04:45:46;2.57;;;1.40;;
7324;SDS011;3703;48.016;7.802;2022-09-09T04:48:35;1.63;;;1.10;;
7324;SDS011;3703;48.016;7.802;2022-09-09T04:51:24;1.43;;;1.33;;
7324;SDS011;3703;48.016;7.802;2022-09-09T04:54:12;3.03;;;1.10;;
7324;SDS011;3703;48.016;7.802;2022-09-09T04:56:59;3.17;;;1.33;;
7324;SDS011;3703;48.016;7.802;2022-09-09T04:59:47;2.77;;;1.40;;
7324;SDS011;3703;48.016;7.802;2022-09-09T05:02:36;6.43;;;1.60;;
7324;SDS011;3703;48.016;7.802;2022-09-09T05:05:25;1.73;;;1.20;;
7324;SDS011;3703;48.016;7.802;2022-09-09T05:08:15;2.90;;;1.37;;
7324;SDS011;3703;48.016;7.802;2022-09-09T05:11:03;4.50;;;1.37;;
7324;SDS011;3703;48.016;7.802;2022-09-09T05:13:58;1.30;;;1.17;;
7324;SDS011;3703;48.016;7.802;2022-09-09T05:16:46;3.60;;;2.17;;
7324;SDS011;3703;48.016;7.802;2022-09-09T05:19:35;4.27;;;1.20;;
7324;SDS011;3703;48.016;7.802;2022-09-09T05:22:23;2.00;;;1.10;;
7324;SDS011;3703;48.016;7.802;2022-09-09T05:25:12;2.43;;;1.30;;
7324;SDS011;3703;48.016;7.802;2022-09-09T05:27:59;2.43;;;1.13;;
7324;SDS011;3703;48.016;7.802;2022-09-09T05:30:54;2.43;;;1.17;;
7324;SDS011;3703;48.016;7.802;2022-09-09T05:33:44;2.03;;;1.20;;
7324;SDS011;3703;48.016;7.802;2022-09-09T05:36:33;1.67;;;1.57;;
7324;SDS011;3703;48.016;7.802;2022-09-09T05:39:21;3.60;;;1.40;;
7324;SDS011;3703;48.016;7.802;2022-09-09T05:42:10;1.80;;;1.10;;
7324;SDS011;3703;48.016;7.802;2022-09-09T05:44:57;2.37;;;1.50;;
7324;SDS011;3703;48.016;7.802;2022-09-09T05:47:45;1.30;;;1.07;;
7324;SDS011;3703;48.016;7.802;2022-09-09T05:50:39;4.60;;;1.20;;
7324;SDS011;3703;48.016;7.802;2022-09-09T05:53:28;1.10;;;1.10;;
7324;SDS011;3703;48.016;7.802;2022-09-09T05:56:20;3.60;;;1.37;;
7324;SDS011;3703;48.016;7.802;2022-09-09T05:59:12;2.23;;;1.40;;
7324;SDS011;3703;48.016;7.802;2022-09-09T06:02:00;2.93;;;1.30;;
7324;SDS011;3703;48.016;7.802;2022-09-09T06:04:48;4.57;;;1.40;;
7324;SDS011;3703;48.016;7.802;2022-09-09T06:07:35;2.13;;;1.13;;
7324;SDS011;3703;48.016;7.802;2022-09-09T06:10:23;2.13;;;1.10;;
7324;SDS011;3703;48.016;7.802;2022-09-09T06:13:11;2.30;;;1.30;;
7324;SDS011;3703;48.016;7.802;2022-09-09T06:16:00;2.63;;;1.20;;
7324;SDS011;3703;48.016;7.802;2022-09-09T06:18:48;1.70;;;1.20;;
7324;SDS011;3703;48.016;7.802;2022-09-09T06:21:36;2.27;;;1.33;;
7324;SDS011;3703;48.016;7.802;2022-09-09T06:24:24;4.43;;;1.40;;
7324;SDS011;3703;48.016;7.802;2022-09-09T06:27:12;2.50;;;1.30;;
7324;SDS011;3703;48.016;7.802;2022-09-09T06:30:00;1.73;;;1.17;;
7324;SDS011;3703;48.016;7.802;2022-09-09T06:32:50;2.47;;;1.23;;
7324;SDS011;3703;48.016;7.802;2022-09-09T06:35:38;3.77;;;1.37;;
7324;SDS011;3703;48.016;7.802;2022-09-09T06:38:25;3.90;;;1.30;;
7324;SDS011;3703;48.016;7.802;2022-09-09T06:41:14;3.37;;;1.27;;
7324;SDS011;3703;48.016;7.802;2022-09-09T06:44:04;2.63;;;1.40;;
7324;SDS011;3703;48.016;7.802;2022-09-09T06:46:52;2.20;;;1.50;;
7324;SDS011;3703;48.016;7.802;2022-09-09T06:49:41;2.30;;;1.30;;
7324;SDS011;3703;48.016;7.802;2022-09-09T06:52:29;2.13;;;1.30;;
7324;SDS011;3703;48.016;7.802;2022-09-09T06:55:17;3.53;;;1.10;;
7324;SDS011;3703;48.016;7.802;2022-09-09T06:58:07;1.50;;;1.13;;
7324;SDS011;3703;48.016;7.802;2022-09-09T07:01:01;3.40;;;1.57;;
7324;SDS011;3703;48.016;7.802;2022-09-09T07:03:50;2.23;;;1.30;;
7324;SDS011;3703;48.016;7.802;2022-09-09T07:06:42;3.33;;;1.53;;
7324;SDS011;3703;48.016;7.802;2022-09-09T07:09:31;1.67;;;1.37;;
7324;SDS011;3703;48.016;7.802;2022-09-09T07:12:19;2.53;;;1.80;;
7324;SDS011;3703;48.016;7.802;2022-09-09T07:15:08;3.80;;;1.40;;
7324;SDS011;3703;48.016;7.802;2022-09-09T07:18:00;1.53;;;1.17;;
7324;SDS011;3703;48.016;7.802;2022-09-09T07:20:54;1.80;;;1.20;;
7324;SDS011;3703;48.016;7.802;2022-09-09T07:23:44;3.20;;;1.47;;
7324;SDS011;3703;48.016;7.802;2022-09-09T07:26:32;1.40;;;1.10;;
7324;SDS011;3703;48.016;7.802;2022-09-09T07:29:21;4.00;;;1.60;;
7324;SDS011;3703;48.016;7.802;2022-09-09T07:32:08;2.03;;;1.40;;
7324;SDS011;3703;48.016;7.802;2022-09-09T07:34:56;3.10;;;1.57;;
7324;SDS011;3703;48.016;7.802;2022-09-09T07:37:45;2.00;;;1.13;;
7324;SDS011;3703;48.016;7.802;2022-09-09T07:40:34;4.10;;;1.50;;
7324;SDS011;3703;48.016;7.802;2022-09-09T07:43:25;1.40;;;1.30;;
7324;SDS011;3703;48.016;7.802;2022-09-09T07:46:13;4.07;;;1.40;;
7324;SDS011;3703;48.016;7.802;2022-09-09T07:49:02;4.87;;;1.80;;
7324;SDS011;3703;48.016;7.802;2022-09-09T07:51:50;5.23;;;1.50;;
7324;SDS011;3703;48.016;7.802;2022-09-09T07:54:37;3.63;;;1.60;;
7324;SDS011;3703;48.016;7.802;2022-09-09T07:57:26;8.57;;;1.47;;
7324;SDS011;3703;48.016;7.802;2022-09-09T08:00:15;2.07;;;1.23;;
7324;SDS011;3703;48.016;7.802;2022-09-09T08:03:04;1.87;;;1.10;;
7324;SDS011;3703;48.016;7.802;2022-09-09T08:05:52;4.70;;;1.57;;
7324;SDS011;3703;48.016;7.802;2022-09-09T08:08:40;6.03;;;1.60;;
7324;SDS011;3703;48.016;7.802;2022-09-09T08:11:29;5.70;;;1.90;;
7324;SDS011;3703;48.016;7.802;2022-09-09T08:14:19;2.20;;;1.33;;
7324;SDS011;3703;48.016;7.802;2022-09-09T08:17:07;4.87;;;1.47;;
7324;SDS011;3703;48.016;7.802;2022-09-09T08:19:55;3.17;;;1.47;;
7324;SDS011;3703;48.016;7.802;2022-09-09T08:22:43;3.53;;;1.73;;
7324;SDS011;3703;48.016;7.802;2022-09-09T08:25:31;2.23;;;1.40;;
7324;SDS011;3703;48.016;7.802;2022-09-09T08:28:20;2.00;;;1.30;;
7324;SDS011;3703;48.016;7.802;2022-09-09T08:31:10;3.70;;;1.60;;
7324;SDS011;3703;48.016;7.802;2022-09-09T08:34:00;5.40;;;1.63;;
7324;SDS011;3703;48.016;7.802;2022-09-09T08:36:50;2.90;;;1.67;;
7324;SDS011;3703;48.016;7.802;2022-09-09T08:39:38;4.00;;;1.73;;
7324;SDS011;3703;48.016;7.802;2022-09-09T08:42:31;4.60;;;1.37;;
7324;SDS011;3703;48.016;7.802;2022-09-09T08:45:28;5.60;;;1.37;;
7324;SDS011;3703;48.016;7.802;2022-09-09T08:48:28;2.27;;;1.40;;
7324;SDS011;3703;48.016;7.802;2022-09-09T08:51:30;2.77;;;1.40;;
7324;SDS011;3703;48.016;7.802;2022-09-09T08:54:19;3.90;;;1.20;;
7324;SDS011;3703;48.016;7.802;2022-09-09T08:57:07;7.40;;;1.40;;
7324;SDS011;3703;48.016;7.802;2022-09-09T09:00:02;6.70;;;1.57;;
7324;SDS011;3703;48.016;7.802;2022-09-09T09:02:53;3.73;;;1.63;;
7324;SDS011;3703;48.016;7.802;2022-09-09T09:05:54;7.07;;;1.40;;
7324;SDS011;3703;48.016;7.802;2022-09-09T09:08:54;1.60;;;1.20;;
7324;SDS011;3703;48.016;7.802;2022-09-09T09:11:48;2.73;;;1.30;;
7324;SDS011;3703;48.016;7.802;2022-09-09T09:14:39;2.73;;;1.27;;
7324;SDS011;3703;48.016;7.802;2022-09-09T09:17:27;5.13;;;1.20;;
7324;SDS011;3703;48.016;7.802;2022-09-09T09:20:20;3.53;;;1.40;;
7324;SDS011;3703;48.016;7.802;2022-09-09T09:23:18;9.13;;;1.63;;
7324;SDS011;3703;48.016;7.802;2022-09-09T09:26:09;2.63;;;1.10;;
7324;SDS011;3703;48.016;7.802;2022-09-09T09:28:57;2.93;;;1.20;;
7324;SDS011;3703;48.016;7.802;2022-09-09T09:31:50;3.90;;;1.40;;
7324;SDS011;3703;48.016;7.802;2022-09-09T09:34:41;4.97;;;1.30;;
7324;SDS011;3703;48.016;7.802;2022-09-09T09:37:29;2.50;;;1.07;;
7324;SDS011;3703;48.016;7.802;2022-09-09T09:40:21;5.07;;;1.43;;
7324;SDS011;3703;48.016;7.802;2022-09-09T09:43:16;2.30;;;1.13;;
7324;SDS011;3703;48.016;7.802;2022-09-09T09:46:17;4.40;;;1.23;;
7324;SDS011;3703;48.016;7.802;2022-09-09T09:49:09;3.67;;;1.30;;
7324;SDS011;3703;48.016;7.802;2022-09-09T09:52:00;2.87;;;1.07;;
7324;SDS011;3703;48.016;7.802;2022-09-09T09:54:48;3.33;;;1.20;;
7324;SDS011;3703;48.016;7.802;2022-09-09T09:57:37;3.90;;;1.00;;
7324;SDS011;3703;48.016;7.802;2022-09-09T10:00:25;2.33;;;1.03;;
7324;SDS011;3703;48.016;7.802;2022-09-09T10:03:14;2.57;;;1.10;;
7324;SDS011;3703;48.016;7.802;2022-09-09T10:06:12;1.67;;;0.93;;
7324;SDS011;3703;48.016;7.802;2022-09-09T10:09:00;4.03;;;1.43;;
7324;SDS011;3703;48.016;7.802;2022-09-09T10:11:55;3.03;;;0.90;;
7324;SDS011;3703;48.016;7.802;2022-09-09T10:14:55;2.53;;;0.97;;
7324;SDS011;3703;48.016;7.802;2022-09-09T10:17:54;3.50;;;1.20;;
7324;SDS011;3703;48.016;7.802;2022-09-09T10:20:54;3.67;;;1.30;;
7324;SDS011;3703;48.016;7.802;2022-09-09T10:24:01;3.13;;;1.10;;
7324;SDS011;3703;48.016;7.802;2022-09-09T10:27:10;2.37;;;1.10;;
7324;SDS011;3703;48.016;7.802;2022-09-09T10:30:12;2.50;;;1.00;;
7324;SDS011;3703;48.016;7.802;2022-09-09T10:33:04;1.83;;;1.10;;
7324;SDS011;3703;48.016;7.802;2022-09-09T10:35:58;2.07;;;1.13;;
7324;SDS011;3703;48.016;7.802;2022-09-09T10:38:57;2.27;;;1.10;;
7324;SDS011;3703;48.016;7.802;2022-09-09T10:41:51;3.60;;;1.17;;
7324;SDS011;3703;48.016;7.802;2022-09-09T10:44:52;1.90;;;0.93;;
7324;SDS011;3703;48.016;7.802;2022-09-09T10:47:55;4.27;;;1.33;;
7324;SDS011;3703;48.016;7.802;2022-09-09T10:51:07;4.03;;;1.03;;
7324;SDS011;3703;48.016;7.802;2022-09-09T10:54:13;5.80;;;1.30;;
7324;SDS011;3703;48.016;7.802;2022-09-09T10:57:24;4.83;;;0.93;;
7324;SDS011;3703;48.016;7.802;2022-09-09T11:00:18;4.77;;;1.13;;
7324;SDS011;3703;48.016;7.802;2022-09-09T11:03:11;1.80;;;0.97;;
7324;SDS011;3703;48.016;7.802;2022-09-09T11:06:06;4.90;;;1.23;;
7324;SDS011;3703;48.016;7.802;2022-09-09T11:09:02;4.07;;;0.90;;
7324;SDS011;3703;48.016;7.802;2022-09-09T11:11:51;4.50;;;1.13;;
7324;SDS011;3703;48.016;7.802;2022-09-09T11:14:41;3.03;;;0.80;;
7324;SDS011;3703;48.016;7.802;2022-09-09T11:17:36;2.53;;;0.90;;
7324;SDS011;3703;48.016;7.802;2022-09-09T11:20:31;3.07;;;0.93;;
7324;SDS011;3703;48.016;7.802;2022-09-09T11:23:20;6.60;;;0.90;;
7324;SDS011;3703;48.016;7.802;2022-09-09T11:26:14;1.53;;;0.87;;
7324;SDS011;3703;48.016;7.802;2022-09-09T11:29:11;2.33;;;0.83;;
7324;SDS011;3703;48.016;7.802;2022-09-09T11:32:59;1.93;;;0.97;;
7324;SDS011;3703;48.016;7.802;2022-09-09T11:36:41;6.70;;;1.40;;
7324;SDS011;3703;48.016;7.802;2022-09-09T11:39:50;4.83;;;1.00;;
7324;SDS011;3703;48.016;7.802;2022-09-09T11:43:03;1.83;;;0.90;;
7324;SDS011;3703;48.016;7.802;2022-09-09T11:45:58;2.80;;;0.93;;
7324;SDS011;3703;48.016;7.802;2022-09-09T11:48:57;1.70;;;0.90;;
7324;SDS011;3703;48.016;7.802;2022-09-09T11:51:47;1.77;;;1.07;;
7324;SDS011;3703;48.016;7.802;2022-09-09T11:54:44;3.13;;;0.90;;
7324;SDS011;3703;48.016;7.802;2022-09-09T11:57:36;3.63;;;1.00;;
7324;SDS011;3703;48.016;7.802;2022-09-09T12:00:28;2.83;;;0.93;;
7324;SDS011;3703;48.016;7.802;2022-09-09T12:03:35;2.27;;;0.80;;
7324;SDS011;3703;48.016;7.802;2022-09-09T12:06:29;1.87;;;0.97;;
7324;SDS011;3703;48.016;7.802;2022-09-09T12:09:25;3.33;;;0.80;;
7324;SDS011;3703;48.016;7.802;2022-09-09T12:12:26;4.27;;;0.93;;
7324;SDS011;3703;48.016;7.802;2022-09-09T12:15:24;1.87;;;0.90;;
7324;SDS011;3703;48.016;7.802;2022-09-09T12:18:15;2.43;;;0.87;;
7324;SDS011;3703;48.016;7.802;2022-09-09T12:21:14;2.40;;;1.00;;
7324;SDS011;3703;48.016;7.802;2022-09-09T12:24:16;1.60;;;0.63;;
7324;SDS011;3703;48.016;7.802;2022-09-09T12:27:14;4.60;;;0.80;;
7324;SDS011;3703;48.016;7.802;2022-09-09T12:30:09;2.30;;;0.87;;
7324;SDS011;3703;48.016;7.802;2022-09-09T12:33:01;2.80;;;1.00;;
7324;SDS011;3703;48.016;7.802;2022-09-09T12:35:57;2.13;;;0.93;;
7324;SDS011;3703;48.016;7.802;2022-09-09T12:38:46;3.60;;;1.10;;
7324;SDS011;3703;48.016;7.802;2022-09-09T12:41:37;3.37;;;0.90;;
7324;SDS011;3703;48.016;7.802;2022-09-09T12:44:25;3.87;;;1.23;;
7324;SDS011;3703;48.016;7.802;2022-09-09T12:47:14;2.53;;;0.90;;
7324;SDS011;3703;48.016;7.802;2022-09-09T12:50:02;4.40;;;1.20;;
7324;SDS011;3703;48.016;7.802;2022-09-09T12:52:51;2.30;;;1.00;;
7324;SDS011;3703;48.016;7.802;2022-09-09T12:55:55;2.80;;;0.90;;
7324;SDS011;3703;48.016;7.802;2022-09-09T12:58:47;1.03;;;0.90;;
7324;SDS011;3703;48.016;7.802;2022-09-09T13:01:38;3.10;;;0.80;;
7324;SDS011;3703;48.016;7.802;2022-09-09T13:04:25;1.97;;;0.90;;
7324;SDS011;3703;48.016;7.802;2022-09-09T13:07:14;4.30;;;0.93;;
7324;SDS011;3703;48.016;7.802;2022-09-09T13:10:01;1.20;;;1.00;;
7324;SDS011;3703;48.016;7.802;2022-09-09T13:12:50;2.10;;;0.90;;
7324;SDS011;3703;48.016;7.802;2022-09-09T13:15:47;0.80;;;0.80;;
7324;SDS011;3703;48.016;7.802;2022-09-09T13:18:39;1.20;;;0.93;;
7324;SDS011;3703;48.016;7.802;2022-09-09T13:21:35;3.20;;;0.93;;
7324;SDS011;3703;48.016;7.802;2022-09-09T13:24:26;4.10;;;1.17;;
7324;SDS011;3703;48.016;7.802;2022-09-09T13:27:22;2.87;;;0.83;;
7324;SDS011;3703;48.016;7.802;2022-09-09T13:30:20;1.17;;;0.70;;
7324;SDS011;3703;48.016;7.802;2022-09-09T13:33:22;1.33;;;0.80;;
7324;SDS011;3703;48.016;7.802;2022-09-09T13:36:10;2.37;;;0.70;;
7324;SDS011;3703;48.016;7.802;2022-09-09T13:38:59;1.23;;;0.80;;
7324;SDS011;3703;48.016;7.802;2022-09-09T13:41:49;0.70;;;0.70;;
7324;SDS011;3703;48.016;7.802;2022-09-09T13:44:38;1.60;;;1.10;;
7324;SDS011;3703;48.016;7.802;2022-09-09T13:47:29;2.97;;;0.80;;
7324;SDS011;3703;48.016;7.802;2022-09-09T13:50:21;1.83;;;0.90;;
7324;SDS011;3703;48.016;7.802;2022-09-09T13:53:11;1.40;;;0.90;;
7324;SDS011;3703;48.016;7.802;2022-09-09T13:55:58;0.70;;;0.70;;
7324;SDS011;3703;48.016;7.802;2022-09-09T13:58:47;1.30;;;0.60;;
7324;SDS011;3703;48.016;7.802;2022-09-09T14:01:34;1.60;;;0.70;;
7324;SDS011;3703;48.016;7.802;2022-09-09T14:04:22;0.90;;;0.67;;
7324;SDS011;3703;48.016;7.802;2022-09-09T14:07:12;0.60;;;0.60;;
7324;SDS011;3703;48.016;7.802;2022-09-09T14:10:02;1.17;;;0.90;;
7324;SDS011;3703;48.016;7.802;2022-09-09T14:12:50;2.30;;;1.00;;
7324;SDS011;3703;48.016;7.802;2022-09-09T14:15:38;3.13;;;0.90;;
7324;SDS011;3703;48.016;7.802;2022-09-09T14:18:25;0.90;;;0.70;;
7324;SDS011;3703;48.016;7.802;2022-09-09T14:21:13;3.73;;;0.90;;
7324;SDS011;3703;48.016;7.802;2022-09-09T14:24:03;2.03;;;0.87;;
7324;SDS011;3703;48.016;7.802;2022-09-09T14:26:51;2.13;;;0.90;;
7324;SDS011;3703;48.016;7.802;2022-09-09T14:29:39;2.90;;;1.20;;
7324;SDS011;3703;48.016;7.802;2022-09-09T14:32:26;3.00;;;1.03;;
7324;SDS011;3703;48.016;7.802;2022-09-09T14:35:14;2.30;;;0.80;;
7324;SDS011;3703;48.016;7.802;2022-09-09T14:38:03;2.87;;;1.10;;
7324;SDS011;3703;48.016;7.802;2022-09-09T14:40:52;1.27;;;0.80;;
7324;SDS011;3703;48.016;7.802;2022-09-09T14:43:40;0.70;;;0.70;;
7324;SDS011;3703;48.016;7.802;2022-09-09T14:46:27;3.83;;;0.90;;
7324;SDS011;3703;48.016;7.802;2022-09-09T14:49:15;1.70;;;0.80;;
7324;SDS011;3703;48.016;7.802;2022-09-09T14:52:03;2.33;;;1.10;;
7324;SDS011;3703;48.016;7.802;2022-09-09T14:54:51;2.00;;;0.90;;
7324;SDS011;3703;48.016;7.802;2022-09-09T14:57:40;1.73;;;1.00;;
7324;SDS011;3703;48.016;7.802;2022-09-09T15:00:29;2.10;;;0.97;;
7324;SDS011;3703;48.016;7.802;2022-09-09T15:03:16;1.10;;;0.97;;
7324;SDS011;3703;48.016;7.802;2022-09-09T15:06:04;2.00;;;0.90;;
7324;SDS011;3703;48.016;7.802;2022-09-09T15:08:54;4.77;;;1.77;;
7324;SDS011;3703;48.016;7.802;2022-09-09T15:11:44;2.93;;;1.07;;
7324;SDS011;3703;48.016;7.802;2022-09-09T15:14:33;2.47;;;1.33;;
7324;SDS011;3703;48.016;7.802;2022-09-09T15:17:20;1.77;;;1.00;;
7324;SDS011;3703;48.016;7.802;2022-09-09T15:20:11;1.00;;;0.87;;
7324;SDS011;3703;48.016;7.802;2022-09-09T15:22:58;1.40;;;0.90;;
7324;SDS011;3703;48.016;7.802;2022-09-09T15:25:50;2.10;;;0.83;;
7324;SDS011;3703;48.016;7.802;2022-09-09T15:28:38;1.57;;;0.70;;
7324;SDS011;3703;48.016;7.802;2022-09-09T15:31:30;1.57;;;0.70;;
7324;SDS011;3703;48.016;7.802;2022-09-09T15:34:18;0.87;;;0.80;;
7324;SDS011;3703;48.016;7.802;2022-09-09T15:37:06;1.07;;;0.80;;
7324;SDS011;3703;48.016;7.802;2022-09-09T15:39:58;1.97;;;0.80;;
7324;SDS011;3703;48.016;7.802;2022-09-09T15:42:46;1.07;;;0.87;;
7324;SDS011;3703;48.016;7.802;2022-09-09T15:45:34;2.73;;;0.90;;
7324;SDS011;3703;48.016;7.802;2022-09-09T15:48:24;1.67;;;0.90;;
7324;SDS011;3703;48.016;7.802;2022-09-09T15:51:18;1.60;;;0.90;;
7324;SDS011;3703;48.016;7.802;2022-09-09T15:54:07;2.10;;;0.80;;
7324;SDS011;3703;48.016;7.802;2022-09-09T15:56:56;3.60;;;1.20;;
7324;SDS011;3703;48.016;7.802;2022-09-09T15:59:46;1.17;;;1.07;;
7324;SDS011;3703;48.016;7.802;2022-09-09T16:02:33;2.40;;;1.20;;
7324;SDS011;3703;48.016;7.802;2022-09-09T16:05:23;1.97;;;1.10;;
7324;SDS011;3703;48.016;7.802;2022-09-09T16:08:11;1.33;;;0.90;;
7324;SDS011;3703;48.016;7.802;2022-09-09T16:11:03;3.10;;;1.20;;
7324;SDS011;3703;48.016;7.802;2022-09-09T16:13:55;1.33;;;1.10;;
7324;SDS011;3703;48.016;7.802;2022-09-09T16:16:43;0.90;;;0.90;;
7324;SDS011;3703;48.016;7.802;2022-09-09T16:19:30;2.20;;;1.13;;
7324;SDS011;3703;48.016;7.802;2022-09-09T16:22:21;4.60;;;1.13;;
7324;SDS011;3703;48.016;7.802;2022-09-09T16:25:09;2.20;;;1.97;;
7324;SDS011;3703;48.016;7.802;2022-09-09T16:27:57;1.33;;;1.20;;
7324;SDS011;3703;48.016;7.802;2022-09-09T16:30:45;1.83;;;0.97;;
7324;SDS011;3703;48.016;7.802;2022-09-09T16:33:32;2.27;;;1.30;;
7324;SDS011;3703;48.016;7.802;2022-09-09T16:36:21;1.27;;;1.10;;
7324;SDS011;3703;48.016;7.802;2022-09-09T16:39:13;2.60;;;1.10;;
7324;SDS011;3703;48.016;7.802;2022-09-09T16:42:03;2.20;;;1.40;;
7324;SDS011;3703;48.016;7.802;2022-09-09T16:44:50;3.13;;;1.30;;
7324;SDS011;3703;48.016;7.802;2022-09-09T16:47:38;1.67;;;1.20;;
7324;SDS011;3703;48.016;7.802;2022-09-09T16:50:26;2.73;;;1.37;;
7324;SDS011;3703;48.016;7.802;2022-09-09T16:53:13;2.10;;;1.57;;
7324;SDS011;3703;48.016;7.802;2022-09-09T16:56:05;6.23;;;1.40;;
7324;SDS011;3703;48.016;7.802;2022-09-09T16:58:55;2.83;;;1.10;;
7324;SDS011;3703;48.016;7.802;2022-09-09T17:01:46;2.77;;;1.27;;
7324;SDS011;3703;48.016;7.802;2022-09-09T17:04:35;1.50;;;1.27;;
7324;SDS011;3703;48.016;7.802;2022-09-09T17:07:22;1.90;;;1.27;;
7324;SDS011;3703;48.016;7.802;2022-09-09T17:10:10;2.47;;;1.17;;
7324;SDS011;3703;48.016;7.802;2022-09-09T17:13:00;2.57;;;1.10;;
7324;SDS011;3703;48.016;7.802;2022-09-09T17:15:48;2.17;;;1.10;;
7324;SDS011;3703;48.016;7.802;2022-09-09T17:18:36;3.23;;;1.17;;
7324;SDS011;3703;48.016;7.802;2022-09-09T17:21:26;2.27;;;1.07;;
7324;SDS011;3703;48.016;7.802;2022-09-09T17:24:15;2.77;;;1.27;;
7324;SDS011;3703;48.016;7.802;2022-09-09T17:27:02;2.30;;;1.10;;
7324;SDS011;3703;48.016;7.802;2022-09-09T17:29:52;1.73;;;1.00;;
7324;SDS011;3703;48.016;7.802;2022-09-09T17:32:40;2.00;;;1.10;;
7324;SDS011;3703;48.016;7.802;2022-09-09T17:35:27;1.63;;;1.20;;
7324;SDS011;3703;48.016;7.802;2022-09-09T17:38:15;2.27;;;1.30;;
7324;SDS011;3703;48.016;7.802;2022-09-09T17:41:03;3.00;;;1.10;;
7324;SDS011;3703;48.016;7.802;2022-09-09T17:43:54;2.50;;;1.37;;
7324;SDS011;3703;48.016;7.802;2022-09-09T17:46:45;2.33;;;1.30;;
7324;SDS011;3703;48.016;7.802;2022-09-09T17:49:33;3.77;;;1.50;;